sensor_id;sensor_type;location;lat;lon;timestamp;P1;durP1;ratioP1;P2;durP2;ratioP2
70450;SDS011;58869;51.982;4.450;2023-02-01T00:00:18;13.14;;;8.50;;
70450;SDS011;58869;51.982;4.450;2023-02-01T00:02:44;14.20;;;9.07;;
70450;SDS011;58869;51.982;4.450;2023-02-01T00:05:10;14.06;;;8.98;;
70450;SDS011;58869;51.982;4.450;2023-02-01T00:10:10;13.21;;;8.39;;
70450;SDS011;58869;51.982;4.450;2023-02-01T00:12:43;12.34;;;7.90;;
70450;SDS011;58869;51.982;4.450;2023-02-01T00:15:14;13.48;;;8.54;;
70450;SDS011;58869;51.982;4.450;2023-02-01T00:17:46;12.89;;;8.27;;
70450;SDS011;58869;51.982;4.450;2023-02-01T00:20:11;13.44;;;8.52;;
70450;SDS011;58869;51.982;4.450;2023-02-01T00:22:44;14.99;;;9.33;;
70450;SDS011;58869;51.982;4.450;2023-02-01T00:25:19;13.57;;;8.58;;
70450;SDS011;58869;51.982;4.450;2023-02-01T00:27:48;14.63;;;9.13;;
70450;SDS011;58869;51.982;4.450;2023-02-01T00:30:20;13.40;;;8.28;;
70450;SDS011;58869;51.982;4.450;2023-02-01T00:32:45;13.59;;;8.54;;
70450;SDS011;58869;51.982;4.450;2023-02-01T00:35:20;12.45;;;7.92;;
70450;SDS011;58869;51.982;4.450;2023-02-01T00:37:57;13.49;;;8.47;;
70450;SDS011;58869;51.982;4.450;2023-02-01T00:40:24;13.93;;;8.73;;
70450;SDS011;58869;51.982;4.450;2023-02-01T00:42:50;14.43;;;8.94;;
70450;SDS011;58869;51.982;4.450;2023-02-01T00:45:15;13.95;;;8.70;;
70450;SDS011;58869;51.982;4.450;2023-02-01T00:50:28;13.27;;;8.42;;
70450;SDS011;58869;51.982;4.450;2023-02-01T00:52:53;13.30;;;8.49;;
70450;SDS011;58869;51.982;4.450;2023-02-01T00:55:25;12.21;;;7.93;;
70450;SDS011;58869;51.982;4.450;2023-02-01T00:57:59;12.69;;;8.12;;
70450;SDS011;58869;51.982;4.450;2023-02-01T01:00:25;12.95;;;8.29;;
70450;SDS011;58869;51.982;4.450;2023-02-01T01:02:51;13.14;;;8.29;;
70450;SDS011;58869;51.982;4.450;2023-02-01T01:05:16;14.72;;;9.22;;
70450;SDS011;58869;51.982;4.450;2023-02-01T01:07:41;13.77;;;8.69;;
70450;SDS011;58869;51.982;4.450;2023-02-01T01:10:07;14.85;;;9.18;;
70450;SDS011;58869;51.982;4.450;2023-02-01T01:12:33;14.41;;;8.86;;
70450;SDS011;58869;51.982;4.450;2023-02-01T01:15:02;14.83;;;9.20;;
70450;SDS011;58869;51.982;4.450;2023-02-01T01:17:28;14.98;;;9.31;;
70450;SDS011;58869;51.982;4.450;2023-02-01T01:19:53;14.60;;;9.08;;
70450;SDS011;58869;51.982;4.450;2023-02-01T01:22:18;14.83;;;9.20;;
70450;SDS011;58869;51.982;4.450;2023-02-01T01:24:44;16.63;;;10.23;;
70450;SDS011;58869;51.982;4.450;2023-02-01T01:27:11;15.54;;;9.74;;
70450;SDS011;58869;51.982;4.450;2023-02-01T01:29:36;16.11;;;10.02;;
70450;SDS011;58869;51.982;4.450;2023-02-01T01:32:02;15.79;;;9.86;;
70450;SDS011;58869;51.982;4.450;2023-02-01T01:34:31;14.43;;;9.14;;
70450;SDS011;58869;51.982;4.450;2023-02-01T01:36:59;15.41;;;9.62;;
70450;SDS011;58869;51.982;4.450;2023-02-01T01:39:24;15.27;;;9.53;;
70450;SDS011;58869;51.982;4.450;2023-02-01T01:41:50;15.67;;;9.73;;
70450;SDS011;58869;51.982;4.450;2023-02-01T01:47:19;15.83;;;10.03;;
70450;SDS011;58869;51.982;4.450;2023-02-01T01:49:45;17.71;;;10.97;;
70450;SDS011;58869;51.982;4.450;2023-02-01T01:52:10;16.70;;;10.45;;
70450;SDS011;58869;51.982;4.450;2023-02-01T01:54:46;17.42;;;10.81;;
70450;SDS011;58869;51.982;4.450;2023-02-01T01:57:23;18.06;;;11.09;;
70450;SDS011;58869;51.982;4.450;2023-02-01T02:02:34;18.11;;;11.16;;
70450;SDS011;58869;51.982;4.450;2023-02-01T02:05:02;16.70;;;10.44;;
70450;SDS011;58869;51.982;4.450;2023-02-01T02:07:30;17.21;;;10.78;;
70450;SDS011;58869;51.982;4.450;2023-02-01T02:10:04;19.00;;;11.65;;
70450;SDS011;58869;51.982;4.450;2023-02-01T02:12:31;18.06;;;11.03;;
70450;SDS011;58869;51.982;4.450;2023-02-01T02:14:58;17.86;;;11.08;;
70450;SDS011;58869;51.982;4.450;2023-02-01T02:20:01;18.53;;;11.23;;
70450;SDS011;58869;51.982;4.450;2023-02-01T02:33:42;16.65;;;10.34;;
70450;SDS011;58869;51.982;4.450;2023-02-01T02:36:23;15.92;;;9.94;;
70450;SDS011;58869;51.982;4.450;2023-02-01T02:39:06;16.94;;;10.66;;
70450;SDS011;58869;51.982;4.450;2023-02-01T02:42:03;16.42;;;10.32;;
70450;SDS011;58869;51.982;4.450;2023-02-01T02:45:17;16.76;;;10.62;;
70450;SDS011;58869;51.982;4.450;2023-02-01T02:51:05;16.86;;;10.61;;
70450;SDS011;58869;51.982;4.450;2023-02-01T02:53:58;15.86;;;9.89;;
70450;SDS011;58869;51.982;4.450;2023-02-01T02:56:53;15.29;;;9.49;;
70450;SDS011;58869;51.982;4.450;2023-02-01T02:59:40;17.50;;;10.73;;
70450;SDS011;58869;51.982;4.450;2023-02-01T03:02:28;16.21;;;10.12;;
70450;SDS011;58869;51.982;4.450;2023-02-01T03:05:13;17.00;;;10.60;;
70450;SDS011;58869;51.982;4.450;2023-02-01T03:16:15;17.61;;;10.96;;
70450;SDS011;58869;51.982;4.450;2023-02-01T03:24:17;15.97;;;10.05;;
70450;SDS011;58869;51.982;4.450;2023-02-01T03:26:58;15.03;;;9.50;;
70450;SDS011;58869;51.982;4.450;2023-02-01T03:32:15;14.41;;;9.12;;
70450;SDS011;58869;51.982;4.450;2023-02-01T03:34:41;15.96;;;10.06;;
70450;SDS011;58869;51.982;4.450;2023-02-01T03:37:09;15.62;;;9.91;;
70450;SDS011;58869;51.982;4.450;2023-02-01T03:42:24;15.27;;;9.63;;
70450;SDS011;58869;51.982;4.450;2023-02-01T03:45:00;16.91;;;10.55;;
70450;SDS011;58869;51.982;4.450;2023-02-01T03:47:37;16.24;;;10.06;;
70450;SDS011;58869;51.982;4.450;2023-02-01T03:50:11;16.73;;;10.46;;
70450;SDS011;58869;51.982;4.450;2023-02-01T03:52:48;15.28;;;9.55;;
70450;SDS011;58869;51.982;4.450;2023-02-01T03:55:20;15.32;;;9.71;;
70450;SDS011;58869;51.982;4.450;2023-02-01T03:57:53;15.22;;;9.64;;
70450;SDS011;58869;51.982;4.450;2023-02-01T04:00:42;13.67;;;8.80;;
70450;SDS011;58869;51.982;4.450;2023-02-01T04:03:09;13.12;;;8.53;;
70450;SDS011;58869;51.982;4.450;2023-02-01T04:05:35;13.19;;;8.61;;
70450;SDS011;58869;51.982;4.450;2023-02-01T04:08:01;12.86;;;8.42;;
70450;SDS011;58869;51.982;4.450;2023-02-01T04:10:27;14.47;;;9.30;;
70450;SDS011;58869;51.982;4.450;2023-02-01T04:12:52;14.32;;;9.22;;
70450;SDS011;58869;51.982;4.450;2023-02-01T04:15:18;14.00;;;8.90;;
70450;SDS011;58869;51.982;4.450;2023-02-01T04:17:44;14.41;;;9.09;;
70450;SDS011;58869;51.982;4.450;2023-02-01T04:20:10;14.31;;;9.17;;
70450;SDS011;58869;51.982;4.450;2023-02-01T04:22:35;12.67;;;8.26;;
70450;SDS011;58869;51.982;4.450;2023-02-01T04:25:01;13.92;;;9.12;;
70450;SDS011;58869;51.982;4.450;2023-02-01T04:27:26;13.36;;;8.65;;
70450;SDS011;58869;51.982;4.450;2023-02-01T04:29:52;14.36;;;9.30;;
70450;SDS011;58869;51.982;4.450;2023-02-01T04:32:17;15.13;;;9.65;;
70450;SDS011;58869;51.982;4.450;2023-02-01T04:34:43;15.47;;;9.91;;
70450;SDS011;58869;51.982;4.450;2023-02-01T04:37:08;15.16;;;9.72;;
70450;SDS011;58869;51.982;4.450;2023-02-01T04:39:34;14.39;;;9.15;;
70450;SDS011;58869;51.982;4.450;2023-02-01T04:42:00;14.17;;;9.20;;
70450;SDS011;58869;51.982;4.450;2023-02-01T04:44:25;14.02;;;9.08;;
70450;SDS011;58869;51.982;4.450;2023-02-01T04:46:51;13.41;;;8.81;;
70450;SDS011;58869;51.982;4.450;2023-02-01T04:49:16;14.80;;;9.70;;
70450;SDS011;58869;51.982;4.450;2023-02-01T04:51:42;13.38;;;8.85;;
70450;SDS011;58869;51.982;4.450;2023-02-01T04:54:07;14.93;;;9.66;;
70450;SDS011;58869;51.982;4.450;2023-02-01T04:56:36;13.42;;;8.82;;
70450;SDS011;58869;51.982;4.450;2023-02-01T04:59:02;13.58;;;8.96;;
70450;SDS011;58869;51.982;4.450;2023-02-01T05:01:27;14.69;;;9.44;;
70450;SDS011;58869;51.982;4.450;2023-02-01T05:03:53;14.65;;;9.54;;
70450;SDS011;58869;51.982;4.450;2023-02-01T05:06:18;15.48;;;9.88;;
70450;SDS011;58869;51.982;4.450;2023-02-01T05:08:43;14.89;;;9.52;;
70450;SDS011;58869;51.982;4.450;2023-02-01T05:11:09;15.34;;;9.69;;
70450;SDS011;58869;51.982;4.450;2023-02-01T05:13:57;15.38;;;9.83;;
70450;SDS011;58869;51.982;4.450;2023-02-01T05:16:24;15.17;;;9.66;;
70450;SDS011;58869;51.982;4.450;2023-02-01T05:18:49;14.96;;;9.56;;
70450;SDS011;58869;51.982;4.450;2023-02-01T05:21:15;14.60;;;9.37;;
70450;SDS011;58869;51.982;4.450;2023-02-01T05:23:40;13.80;;;8.96;;
70450;SDS011;58869;51.982;4.450;2023-02-01T05:26:24;15.30;;;9.63;;
70450;SDS011;58869;51.982;4.450;2023-02-01T05:28:50;14.41;;;9.13;;
70450;SDS011;58869;51.982;4.450;2023-02-01T05:31:16;14.35;;;9.13;;
70450;SDS011;58869;51.982;4.450;2023-02-01T05:33:41;15.79;;;10.06;;
70450;SDS011;58869;51.982;4.450;2023-02-01T05:36:10;15.60;;;9.84;;
70450;SDS011;58869;51.982;4.450;2023-02-01T05:38:35;15.62;;;9.90;;
70450;SDS011;58869;51.982;4.450;2023-02-01T05:41:01;15.83;;;10.10;;
70450;SDS011;58869;51.982;4.450;2023-02-01T05:43:26;15.04;;;9.63;;
70450;SDS011;58869;51.982;4.450;2023-02-01T05:45:52;14.55;;;9.51;;
70450;SDS011;58869;51.982;4.450;2023-02-01T05:48:26;13.34;;;8.85;;
70450;SDS011;58869;51.982;4.450;2023-02-01T05:50:52;13.49;;;8.89;;
70450;SDS011;58869;51.982;4.450;2023-02-01T05:53:20;13.45;;;8.91;;
70450;SDS011;58869;51.982;4.450;2023-02-01T05:55:46;14.23;;;9.25;;
70450;SDS011;58869;51.982;4.450;2023-02-01T05:58:11;14.36;;;9.35;;
70450;SDS011;58869;51.982;4.450;2023-02-01T06:00:37;13.61;;;8.96;;
70450;SDS011;58869;51.982;4.450;2023-02-01T06:03:03;13.53;;;8.93;;
70450;SDS011;58869;51.982;4.450;2023-02-01T06:05:28;13.73;;;9.13;;
70450;SDS011;58869;51.982;4.450;2023-02-01T06:07:53;13.94;;;9.32;;
70450;SDS011;58869;51.982;4.450;2023-02-01T06:10:19;14.48;;;9.58;;
70450;SDS011;58869;51.982;4.450;2023-02-01T06:12:45;13.95;;;9.20;;
70450;SDS011;58869;51.982;4.450;2023-02-01T06:15:11;15.16;;;9.84;;
70450;SDS011;58869;51.982;4.450;2023-02-01T06:17:37;16.09;;;10.25;;
70450;SDS011;58869;51.982;4.450;2023-02-01T06:20:04;15.97;;;10.10;;
70450;SDS011;58869;51.982;4.450;2023-02-01T06:22:31;14.80;;;9.59;;
70450;SDS011;58869;51.982;4.450;2023-02-01T06:24:57;13.79;;;9.01;;
70450;SDS011;58869;51.982;4.450;2023-02-01T06:27:24;12.25;;;8.17;;
70450;SDS011;58869;51.982;4.450;2023-02-01T06:29:49;13.89;;;9.04;;
70450;SDS011;58869;51.982;4.450;2023-02-01T06:32:18;12.20;;;7.99;;
70450;SDS011;58869;51.982;4.450;2023-02-01T06:34:44;12.88;;;8.41;;
70450;SDS011;58869;51.982;4.450;2023-02-01T06:37:09;13.66;;;8.86;;
70450;SDS011;58869;51.982;4.450;2023-02-01T06:39:36;12.68;;;8.21;;
70450;SDS011;58869;51.982;4.450;2023-02-01T06:42:02;12.39;;;8.04;;
70450;SDS011;58869;51.982;4.450;2023-02-01T06:44:28;13.09;;;8.45;;
70450;SDS011;58869;51.982;4.450;2023-02-01T06:46:53;13.65;;;8.71;;
70450;SDS011;58869;51.982;4.450;2023-02-01T06:49:19;14.62;;;9.25;;
70450;SDS011;58869;51.982;4.450;2023-02-01T06:51:45;13.91;;;8.94;;
70450;SDS011;58869;51.982;4.450;2023-02-01T06:54:11;12.30;;;8.04;;
70450;SDS011;58869;51.982;4.450;2023-02-01T06:56:37;12.05;;;7.87;;
70450;SDS011;58869;51.982;4.450;2023-02-01T06:59:04;12.36;;;8.08;;
70450;SDS011;58869;51.982;4.450;2023-02-01T07:01:36;12.58;;;8.23;;
70450;SDS011;58869;51.982;4.450;2023-02-01T07:04:04;12.31;;;8.12;;
70450;SDS011;58869;51.982;4.450;2023-02-01T07:06:33;12.80;;;8.39;;
70450;SDS011;58869;51.982;4.450;2023-02-01T07:09:07;12.61;;;8.50;;
70450;SDS011;58869;51.982;4.450;2023-02-01T07:11:33;12.58;;;8.51;;
70450;SDS011;58869;51.982;4.450;2023-02-01T07:14:00;12.10;;;8.15;;
70450;SDS011;58869;51.982;4.450;2023-02-01T07:16:25;11.84;;;7.87;;
70450;SDS011;58869;51.982;4.450;2023-02-01T07:18:51;12.56;;;8.24;;
70450;SDS011;58869;51.982;4.450;2023-02-01T07:21:18;13.22;;;8.57;;
70450;SDS011;58869;51.982;4.450;2023-02-01T07:23:44;12.83;;;8.40;;
70450;SDS011;58869;51.982;4.450;2023-02-01T07:26:11;12.70;;;8.43;;
70450;SDS011;58869;51.982;4.450;2023-02-01T07:28:38;11.84;;;7.89;;
70450;SDS011;58869;51.982;4.450;2023-02-01T07:31:05;12.33;;;8.36;;
70450;SDS011;58869;51.982;4.450;2023-02-01T07:33:32;12.41;;;8.21;;
70450;SDS011;58869;51.982;4.450;2023-02-01T07:35:59;13.50;;;8.76;;
70450;SDS011;58869;51.982;4.450;2023-02-01T07:38:26;12.98;;;8.53;;
70450;SDS011;58869;51.982;4.450;2023-02-01T07:40:56;12.70;;;8.39;;
70450;SDS011;58869;51.982;4.450;2023-02-01T07:43:23;12.02;;;7.99;;
70450;SDS011;58869;51.982;4.450;2023-02-01T07:45:52;11.52;;;7.64;;
70450;SDS011;58869;51.982;4.450;2023-02-01T07:48:18;12.64;;;8.29;;
70450;SDS011;58869;51.982;4.450;2023-02-01T07:50:45;12.58;;;8.28;;
70450;SDS011;58869;51.982;4.450;2023-02-01T07:53:10;12.44;;;8.16;;
70450;SDS011;58869;51.982;4.450;2023-02-01T07:55:37;11.81;;;7.99;;
70450;SDS011;58869;51.982;4.450;2023-02-01T07:58:06;11.60;;;7.78;;
70450;SDS011;58869;51.982;4.450;2023-02-01T08:00:32;13.69;;;8.86;;
70450;SDS011;58869;51.982;4.450;2023-02-01T08:03:17;14.24;;;9.15;;
70450;SDS011;58869;51.982;4.450;2023-02-01T08:05:42;14.28;;;9.12;;
70450;SDS011;58869;51.982;4.450;2023-02-01T08:08:08;13.06;;;8.61;;
70450;SDS011;58869;51.982;4.450;2023-02-01T08:10:33;13.06;;;8.51;;
70450;SDS011;58869;51.982;4.450;2023-02-01T08:13:00;14.10;;;8.99;;
70450;SDS011;58869;51.982;4.450;2023-02-01T08:15:27;14.21;;;9.09;;
70450;SDS011;58869;51.982;4.450;2023-02-01T08:17:53;14.13;;;9.06;;
70450;SDS011;58869;51.982;4.450;2023-02-01T08:20:23;12.29;;;7.99;;
70450;SDS011;58869;51.982;4.450;2023-02-01T08:22:51;12.49;;;8.26;;
70450;SDS011;58869;51.982;4.450;2023-02-01T08:25:16;12.31;;;8.22;;
70450;SDS011;58869;51.982;4.450;2023-02-01T08:27:42;12.12;;;8.19;;
70450;SDS011;58869;51.982;4.450;2023-02-01T08:30:11;11.77;;;7.87;;
70450;SDS011;58869;51.982;4.450;2023-02-01T08:32:37;12.39;;;8.38;;
70450;SDS011;58869;51.982;4.450;2023-02-01T08:35:03;11.91;;;7.99;;
70450;SDS011;58869;51.982;4.450;2023-02-01T08:37:30;12.60;;;8.24;;
70450;SDS011;58869;51.982;4.450;2023-02-01T08:39:55;12.59;;;8.14;;
70450;SDS011;58869;51.982;4.450;2023-02-01T08:42:21;13.46;;;8.73;;
70450;SDS011;58869;51.982;4.450;2023-02-01T08:47:40;13.29;;;8.71;;
70450;SDS011;58869;51.982;4.450;2023-02-01T08:50:06;14.50;;;9.34;;
70450;SDS011;58869;51.982;4.450;2023-02-01T08:52:35;14.71;;;9.58;;
70450;SDS011;58869;51.982;4.450;2023-02-01T08:55:00;13.87;;;8.90;;
70450;SDS011;58869;51.982;4.450;2023-02-01T08:57:26;14.50;;;9.31;;
70450;SDS011;58869;51.982;4.450;2023-02-01T08:59:53;13.85;;;8.94;;
70450;SDS011;58869;51.982;4.450;2023-02-01T09:02:34;14.62;;;9.33;;
70450;SDS011;58869;51.982;4.450;2023-02-01T09:05:05;14.01;;;8.93;;
70450;SDS011;58869;51.982;4.450;2023-02-01T09:07:32;12.28;;;8.05;;
70450;SDS011;58869;51.982;4.450;2023-02-01T09:10:00;12.93;;;8.47;;
70450;SDS011;58869;51.982;4.450;2023-02-01T09:12:27;13.17;;;8.45;;
70450;SDS011;58869;51.982;4.450;2023-02-01T09:14:54;14.20;;;9.05;;
70450;SDS011;58869;51.982;4.450;2023-02-01T09:17:21;13.47;;;8.67;;
70450;SDS011;58869;51.982;4.450;2023-02-01T09:22:54;13.40;;;8.60;;
70450;SDS011;58869;51.982;4.450;2023-02-01T09:25:20;14.04;;;8.97;;
70450;SDS011;58869;51.982;4.450;2023-02-01T09:27:46;12.83;;;8.34;;
70450;SDS011;58869;51.982;4.450;2023-02-01T09:30:12;13.95;;;9.01;;
70450;SDS011;58869;51.982;4.450;2023-02-01T09:32:50;14.05;;;8.96;;
70450;SDS011;58869;51.982;4.450;2023-02-01T09:35:25;14.02;;;9.00;;
70450;SDS011;58869;51.982;4.450;2023-02-01T09:37:54;15.37;;;9.69;;
70450;SDS011;58869;51.982;4.450;2023-02-01T09:40:22;14.68;;;9.21;;
70450;SDS011;58869;51.982;4.450;2023-02-01T09:43:00;14.41;;;9.14;;
70450;SDS011;58869;51.982;4.450;2023-02-01T09:45:51;13.36;;;8.54;;
70450;SDS011;58869;51.982;4.450;2023-02-01T09:48:44;13.96;;;9.03;;
70450;SDS011;58869;51.982;4.450;2023-02-01T09:51:31;14.14;;;9.06;;
70450;SDS011;58869;51.982;4.450;2023-02-01T09:54:02;14.34;;;9.20;;
70450;SDS011;58869;51.982;4.450;2023-02-01T10:00:02;13.32;;;8.60;;
70450;SDS011;58869;51.982;4.450;2023-02-01T10:02:32;13.03;;;8.46;;
70450;SDS011;58869;51.982;4.450;2023-02-01T10:05:04;13.83;;;8.88;;
70450;SDS011;58869;51.982;4.450;2023-02-01T10:22:28;13.13;;;8.51;;
70450;SDS011;58869;51.982;4.450;2023-02-01T10:38:45;12.82;;;8.33;;
70450;SDS011;58869;51.982;4.450;2023-02-01T10:44:31;14.71;;;9.31;;
70450;SDS011;58869;51.982;4.450;2023-02-01T10:50:41;15.03;;;9.45;;
70450;SDS011;58869;51.982;4.450;2023-02-01T10:53:29;15.02;;;9.49;;
70450;SDS011;58869;51.982;4.450;2023-02-01T10:56:07;13.63;;;8.59;;
70450;SDS011;58869;51.982;4.450;2023-02-01T10:58:43;15.19;;;9.47;;
70450;SDS011;58869;51.982;4.450;2023-02-01T11:01:23;13.79;;;8.52;;
70450;SDS011;58869;51.982;4.450;2023-02-01T11:03:59;13.49;;;8.55;;
70450;SDS011;58869;51.982;4.450;2023-02-01T11:06:33;13.44;;;8.42;;
70450;SDS011;58869;51.982;4.450;2023-02-01T11:11:33;12.71;;;8.17;;
70450;SDS011;58869;51.982;4.450;2023-02-01T11:16:59;13.62;;;8.66;;
70450;SDS011;58869;51.982;4.450;2023-02-01T11:19:47;14.41;;;9.00;;
70450;SDS011;58869;51.982;4.450;2023-02-01T11:22:45;13.87;;;8.86;;
70450;SDS011;58869;51.982;4.450;2023-02-01T11:30:38;13.93;;;8.71;;
70450;SDS011;58869;51.982;4.450;2023-02-01T11:33:42;13.49;;;8.45;;
70450;SDS011;58869;51.982;4.450;2023-02-01T11:36:24;13.43;;;8.54;;
70450;SDS011;58869;51.982;4.450;2023-02-01T11:41:21;14.85;;;9.18;;
70450;SDS011;58869;51.982;4.450;2023-02-01T11:43:54;15.05;;;9.19;;
70450;SDS011;58869;51.982;4.450;2023-02-01T11:46:22;13.54;;;8.59;;
70450;SDS011;58869;51.982;4.450;2023-02-01T11:48:56;13.55;;;8.50;;
70450;SDS011;58869;51.982;4.450;2023-02-01T11:57:24;14.79;;;9.27;;
70450;SDS011;58869;51.982;4.450;2023-02-01T12:32:37;14.29;;;9.03;;
70450;SDS011;58869;51.982;4.450;2023-02-01T12:38:50;13.91;;;8.69;;
70450;SDS011;58869;51.982;4.450;2023-02-01T12:53:42;14.30;;;8.88;;
70450;SDS011;58869;51.982;4.450;2023-02-01T13:03:19;13.84;;;8.61;;
70450;SDS011;58869;51.982;4.450;2023-02-01T13:06:39;13.40;;;8.43;;
70450;SDS011;58869;51.982;4.450;2023-02-01T13:19:27;13.74;;;8.72;;
70450;SDS011;58869;51.982;4.450;2023-02-01T13:22:17;14.55;;;9.22;;
70450;SDS011;58869;51.982;4.450;2023-02-01T13:24:57;15.21;;;9.39;;
70450;SDS011;58869;51.982;4.450;2023-02-01T13:27:26;14.72;;;9.24;;
70450;SDS011;58869;51.982;4.450;2023-02-01T13:38:59;14.74;;;9.26;;
70450;SDS011;58869;51.982;4.450;2023-02-01T13:44:23;14.48;;;9.26;;
70450;SDS011;58869;51.982;4.450;2023-02-01T13:46:59;14.72;;;9.50;;
70450;SDS011;58869;51.982;4.450;2023-02-01T13:49:29;13.02;;;8.43;;
70450;SDS011;58869;51.982;4.450;2023-02-01T13:51:58;11.50;;;7.61;;
70450;SDS011;58869;51.982;4.450;2023-02-01T13:54:31;12.75;;;8.43;;
70450;SDS011;58869;51.982;4.450;2023-02-01T13:57:02;12.77;;;8.26;;
70450;SDS011;58869;51.982;4.450;2023-02-01T14:05:12;12.33;;;8.14;;
70450;SDS011;58869;51.982;4.450;2023-02-01T14:13:24;12.98;;;8.47;;
70450;SDS011;58869;51.982;4.450;2023-02-01T14:26:19;13.01;;;8.44;;
70450;SDS011;58869;51.982;4.450;2023-02-01T14:50:56;13.16;;;8.44;;
70450;SDS011;58869;51.982;4.450;2023-02-01T14:53:30;13.98;;;8.98;;
70450;SDS011;58869;51.982;4.450;2023-02-01T14:58:44;13.60;;;8.82;;
70450;SDS011;58869;51.982;4.450;2023-02-01T15:01:29;14.94;;;9.59;;
70450;SDS011;58869;51.982;4.450;2023-02-01T15:06:52;15.06;;;9.58;;
70450;SDS011;58869;51.982;4.450;2023-02-01T15:12:47;13.87;;;9.05;;
70450;SDS011;58869;51.982;4.450;2023-02-01T15:15:18;14.55;;;9.33;;
70450;SDS011;58869;51.982;4.450;2023-02-01T15:21:24;13.55;;;8.56;;
70450;SDS011;58869;51.982;4.450;2023-02-01T15:24:28;14.67;;;9.24;;
70450;SDS011;58869;51.982;4.450;2023-02-01T15:26:56;13.84;;;8.85;;
70450;SDS011;58869;51.982;4.450;2023-02-01T16:27:13;10.48;;;6.89;;
70450;SDS011;58869;51.982;4.450;2023-02-01T16:29:38;11.83;;;7.74;;
70450;SDS011;58869;51.982;4.450;2023-02-01T16:32:04;11.15;;;7.27;;
70450;SDS011;58869;51.982;4.450;2023-02-01T16:34:43;11.63;;;7.61;;
70450;SDS011;58869;51.982;4.450;2023-02-01T16:37:28;12.67;;;8.17;;
70450;SDS011;58869;51.982;4.450;2023-02-01T16:39:57;12.77;;;8.18;;
70450;SDS011;58869;51.982;4.450;2023-02-01T16:42:22;12.08;;;7.91;;
70450;SDS011;58869;51.982;4.450;2023-02-01T16:44:48;11.06;;;7.35;;
70450;SDS011;58869;51.982;4.450;2023-02-01T16:47:15;11.65;;;7.71;;
70450;SDS011;58869;51.982;4.450;2023-02-01T16:49:42;12.12;;;7.89;;
70450;SDS011;58869;51.982;4.450;2023-02-01T16:52:19;11.62;;;7.58;;
70450;SDS011;58869;51.982;4.450;2023-02-01T16:54:48;12.05;;;7.93;;
70450;SDS011;58869;51.982;4.450;2023-02-01T16:57:16;12.51;;;8.09;;
70450;SDS011;58869;51.982;4.450;2023-02-01T16:59:43;12.10;;;7.90;;
70450;SDS011;58869;51.982;4.450;2023-02-01T17:02:15;13.11;;;8.47;;
70450;SDS011;58869;51.982;4.450;2023-02-01T17:04:48;13.12;;;8.35;;
70450;SDS011;58869;51.982;4.450;2023-02-01T17:07:15;13.69;;;8.70;;
70450;SDS011;58869;51.982;4.450;2023-02-01T17:09:45;14.19;;;8.98;;
70450;SDS011;58869;51.982;4.450;2023-02-01T17:12:16;14.86;;;9.35;;
70450;SDS011;58869;51.982;4.450;2023-02-01T17:14:48;13.22;;;8.38;;
70450;SDS011;58869;51.982;4.450;2023-02-01T17:17:15;12.70;;;8.22;;
70450;SDS011;58869;51.982;4.450;2023-02-01T17:19:45;12.80;;;8.27;;
70450;SDS011;58869;51.982;4.450;2023-02-01T17:22:17;12.89;;;8.31;;
70450;SDS011;58869;51.982;4.450;2023-02-01T17:24:42;13.12;;;8.56;;
70450;SDS011;58869;51.982;4.450;2023-02-01T17:27:08;12.24;;;8.05;;
70450;SDS011;58869;51.982;4.450;2023-02-01T17:29:34;13.26;;;8.54;;
70450;SDS011;58869;51.982;4.450;2023-02-01T17:32:05;12.91;;;8.24;;
70450;SDS011;58869;51.982;4.450;2023-02-01T17:34:40;12.73;;;8.29;;
70450;SDS011;58869;51.982;4.450;2023-02-01T17:37:08;12.19;;;8.04;;
70450;SDS011;58869;51.982;4.450;2023-02-01T17:39:54;12.25;;;8.04;;
70450;SDS011;58869;51.982;4.450;2023-02-01T17:42:19;11.68;;;7.71;;
70450;SDS011;58869;51.982;4.450;2023-02-01T17:44:45;11.56;;;7.65;;
70450;SDS011;58869;51.982;4.450;2023-02-01T17:47:11;10.94;;;7.25;;
70450;SDS011;58869;51.982;4.450;2023-02-01T17:49:36;11.46;;;7.60;;
70450;SDS011;58869;51.982;4.450;2023-02-01T17:52:03;12.95;;;8.31;;
70450;SDS011;58869;51.982;4.450;2023-02-01T17:54:30;13.04;;;8.21;;
70450;SDS011;58869;51.982;4.450;2023-02-01T17:56:56;12.85;;;8.17;;
70450;SDS011;58869;51.982;4.450;2023-02-01T17:59:25;12.96;;;8.21;;
70450;SDS011;58869;51.982;4.450;2023-02-01T18:01:51;13.74;;;8.68;;
70450;SDS011;58869;51.982;4.450;2023-02-01T18:04:17;13.05;;;8.35;;
70450;SDS011;58869;51.982;4.450;2023-02-01T18:06:45;13.92;;;8.88;;
70450;SDS011;58869;51.982;4.450;2023-02-01T18:09:14;13.71;;;8.60;;
70450;SDS011;58869;51.982;4.450;2023-02-01T18:11:40;14.50;;;9.13;;
70450;SDS011;58869;51.982;4.450;2023-02-01T18:14:08;12.83;;;8.20;;
70450;SDS011;58869;51.982;4.450;2023-02-01T18:16:37;14.63;;;9.27;;
70450;SDS011;58869;51.982;4.450;2023-02-01T18:19:03;13.50;;;8.66;;
70450;SDS011;58869;51.982;4.450;2023-02-01T18:21:42;12.23;;;7.97;;
70450;SDS011;58869;51.982;4.450;2023-02-01T18:24:10;12.62;;;8.27;;
70450;SDS011;58869;51.982;4.450;2023-02-01T18:26:37;10.94;;;7.37;;
70450;SDS011;58869;51.982;4.450;2023-02-01T18:29:06;12.35;;;8.26;;
70450;SDS011;58869;51.982;4.450;2023-02-01T18:31:32;11.43;;;7.74;;
70450;SDS011;58869;51.982;4.450;2023-02-01T18:34:01;12.01;;;7.96;;
70450;SDS011;58869;51.982;4.450;2023-02-01T18:36:28;11.98;;;7.87;;
70450;SDS011;58869;51.982;4.450;2023-02-01T18:38:54;11.44;;;7.52;;
70450;SDS011;58869;51.982;4.450;2023-02-01T18:41:22;12.72;;;8.20;;
70450;SDS011;58869;51.982;4.450;2023-02-01T18:43:51;12.08;;;7.99;;
70450;SDS011;58869;51.982;4.450;2023-02-01T18:46:20;12.17;;;7.95;;
70450;SDS011;58869;51.982;4.450;2023-02-01T18:48:48;11.69;;;7.58;;
70450;SDS011;58869;51.982;4.450;2023-02-01T18:51:17;11.61;;;7.54;;
70450;SDS011;58869;51.982;4.450;2023-02-01T18:53:44;11.95;;;7.81;;
70450;SDS011;58869;51.982;4.450;2023-02-01T18:56:12;12.41;;;8.07;;
70450;SDS011;58869;51.982;4.450;2023-02-01T18:58:42;12.93;;;8.26;;
70450;SDS011;58869;51.982;4.450;2023-02-01T19:01:10;12.08;;;7.73;;
70450;SDS011;58869;51.982;4.450;2023-02-01T19:03:40;12.51;;;7.92;;
70450;SDS011;58869;51.982;4.450;2023-02-01T19:06:06;12.66;;;8.19;;
70450;SDS011;58869;51.982;4.450;2023-02-01T19:08:32;12.33;;;8.06;;
70450;SDS011;58869;51.982;4.450;2023-02-01T19:10:57;12.26;;;8.13;;
70450;SDS011;58869;51.982;4.450;2023-02-01T19:13:23;11.11;;;7.38;;
70450;SDS011;58869;51.982;4.450;2023-02-01T19:15:50;12.40;;;8.06;;
70450;SDS011;58869;51.982;4.450;2023-02-01T19:18:16;13.79;;;8.89;;
70450;SDS011;58869;51.982;4.450;2023-02-01T19:20:44;13.52;;;8.66;;
70450;SDS011;58869;51.982;4.450;2023-02-01T19:23:14;12.46;;;8.19;;
70450;SDS011;58869;51.982;4.450;2023-02-01T19:25:44;12.00;;;7.88;;
70450;SDS011;58869;51.982;4.450;2023-02-01T19:28:11;13.06;;;8.43;;
70450;SDS011;58869;51.982;4.450;2023-02-01T19:30:37;13.96;;;8.86;;
70450;SDS011;58869;51.982;4.450;2023-02-01T19:33:03;14.77;;;9.42;;
70450;SDS011;58869;51.982;4.450;2023-02-01T19:35:28;12.90;;;8.34;;
70450;SDS011;58869;51.982;4.450;2023-02-01T19:37:54;13.00;;;8.51;;
70450;SDS011;58869;51.982;4.450;2023-02-01T19:40:20;14.48;;;9.34;;
70450;SDS011;58869;51.982;4.450;2023-02-01T19:42:46;14.48;;;9.18;;
70450;SDS011;58869;51.982;4.450;2023-02-01T19:45:12;14.07;;;8.99;;
70450;SDS011;58869;51.982;4.450;2023-02-01T19:47:38;14.91;;;9.39;;
70450;SDS011;58869;51.982;4.450;2023-02-01T19:50:04;15.76;;;9.87;;
70450;SDS011;58869;51.982;4.450;2023-02-01T19:52:34;14.06;;;8.99;;